createdAt,value
2023-05-10T00:00:28.890Z,100897.75
2023-05-10T00:02:55.362Z,100901.88
2023-05-10T00:05:21.813Z,100898.91
2023-05-10T00:07:48.262Z,100900.38
2023-05-10T00:10:15.047Z,100897.34
2023-05-10T00:12:41.899Z,100903.03
2023-05-10T00:15:09.262Z,100905.66
2023-05-10T00:17:35.778Z,100897.00
2023-05-10T00:20:02.246Z,100897.75
2023-05-10T00:22:28.658Z,100899.66
2023-05-10T00:24:55.063Z,100897.75
2023-05-10T00:27:21.475Z,100891.72
2023-05-10T00:29:48.046Z,100893.63
2023-05-10T00:32:14.953Z,100892.44
2023-05-10T00:34:41.667Z,100890.56
2023-05-10T00:37:08.145Z,100886.03
2023-05-10T00:39:34.600Z,100887.16
2023-05-10T00:42:01.262Z,100884.53
2023-05-10T00:44:27.678Z,100886.03
2023-05-10T00:46:54.178Z,100890.16
2023-05-10T00:49:21.565Z,100882.25
2023-05-10T00:51:48.129Z,100889.03
2023-05-10T00:54:16.158Z,100881.09
2023-05-10T00:56:42.791Z,100883.31
2023-05-10T00:59:09.821Z,100886.38
2023-05-10T01:01:37.177Z,100884.41
2023-05-10T01:04:04.390Z,100882.56
2023-05-10T01:06:30.803Z,100888.22
2023-05-10T01:08:57.390Z,100895.00
2023-05-10T01:11:23.791Z,100899.09
2023-05-10T01:13:57.805Z,100895.75
2023-05-10T01:16:25.740Z,100899.09
2023-05-10T01:18:52.999Z,100900.28
2023-05-10T01:21:48.445Z,100895.00
2023-05-10T01:24:39.311Z,100888.22
2023-05-10T01:27:35.602Z,100888.97
2023-05-10T01:30:16.138Z,100885.91
2023-05-10T01:32:51.693Z,100890.84
2023-05-10T01:35:23.550Z,100890.09
2023-05-10T01:37:58.710Z,100891.59
2023-05-10T01:40:48.677Z,100898.03
2023-05-10T01:43:24.249Z,100898.78
2023-05-10T01:46:22.957Z,100898.41
2023-05-10T01:48:53.285Z,100904.06
2023-05-10T01:51:28.562Z,100895.78
2023-05-10T01:54:01.724Z,100904.06
2023-05-10T01:56:31.743Z,100892.41
2023-05-10T01:58:59.541Z,100900.66
2023-05-10T02:01:27.562Z,100900.66
2023-05-10T02:03:54.936Z,100908.25
2023-05-10T02:06:23.569Z,100903.31
2023-05-10T02:08:52.075Z,100898.78
2023-05-10T02:11:21.996Z,100898.03
2023-05-10T02:13:50.920Z,100899.16
2023-05-10T02:16:19.264Z,100904.88
2023-05-10T02:18:47.892Z,100905.63
2023-05-10T02:21:16.699Z,100908.59
2023-05-10T02:23:44.510Z,100919.56
2023-05-10T02:26:12.959Z,100919.56
2023-05-10T02:28:41.393Z,100914.28
2023-05-10T02:31:08.443Z,100925.25
2023-05-10T02:33:35.761Z,100917.72
2023-05-10T02:36:04.195Z,100920.72
2023-05-10T02:38:32.672Z,100925.66
2023-05-10T02:41:00.537Z,100926.41
2023-05-10T02:43:28.449Z,100928.28
2023-05-10T02:45:55.000Z,100931.69
2023-05-10T02:48:21.497Z,100927.53
2023-05-10T02:50:52.323Z,100929.44
2023-05-10T02:53:32.838Z,100929.78
2023-05-10T02:56:02.349Z,100929.44
2023-05-10T02:58:28.795Z,100930.19
2023-05-10T03:00:55.347Z,100929.78
2023-05-10T03:03:22.087Z,100929.84
2023-05-10T03:05:48.506Z,100930.94
2023-05-10T03:08:14.938Z,100924.91
2023-05-10T03:11:22.868Z,100929.78
2023-05-10T03:14:28.436Z,100932.84
2023-05-10T03:17:05.243Z,100933.25
2023-05-10T03:19:44.293Z,100929.44
2023-05-10T03:22:12.431Z,100934.38
2023-05-10T03:24:42.187Z,100935.91
2023-05-10T03:27:09.385Z,100935.16
2023-05-10T03:29:36.372Z,100947.56
2023-05-10T03:32:03.191Z,100940.44
2023-05-10T03:34:31.421Z,100942.28
2023-05-10T03:36:58.009Z,100943.06
2023-05-10T03:39:25.839Z,100946.06
2023-05-10T03:41:52.253Z,100942.28
2023-05-10T03:44:18.714Z,100947.56
2023-05-10T03:46:45.264Z,100951.75
2023-05-10T03:49:11.687Z,100961.56
2023-05-10T03:51:38.261Z,100951.34
2023-05-10T03:54:04.776Z,100961.94
2023-05-10T03:56:31.197Z,100960.44
2023-05-10T03:58:57.612Z,100961.19
2023-05-10T04:01:24.101Z,100954.38
2023-05-10T04:03:50.647Z,100955.13
2023-05-10T04:06:17.678Z,100952.16
2023-05-10T04:08:44.179Z,100960.44
2023-05-10T04:11:12.089Z,100953.66
2023-05-10T04:13:39.165Z,100962.31
2023-05-10T04:16:06.074Z,100960.03
2023-05-10T04:18:32.870Z,100960.84
2023-05-10T04:20:59.281Z,100959.28
2023-05-10T04:23:25.703Z,100960.44
2023-05-10T04:25:52.162Z,100964.22
2023-05-10T04:28:18.620Z,100957.03
2023-05-10T04:30:45.084Z,100963.47
2023-05-10T04:33:11.500Z,100960.09
2023-05-10T04:35:37.964Z,100961.59
2023-05-10T04:38:04.399Z,100964.63
2023-05-10T04:40:30.933Z,100965.38
2023-05-10T04:42:57.481Z,100962.38
2023-05-10T04:45:24.025Z,100965.38
2023-05-10T04:47:50.588Z,100961.97
2023-05-10T04:50:20.028Z,100966.53
2023-05-10T04:52:46.695Z,100967.66
2023-05-10T04:55:13.116Z,100974.84
2023-05-10T04:57:39.673Z,100972.94
2023-05-10T05:00:06.763Z,100972.94
2023-05-10T05:02:33.283Z,100973.34
2023-05-10T05:04:59.852Z,100971.47
2023-05-10T05:07:26.333Z,100968.47
2023-05-10T05:09:52.740Z,100979.03
2023-05-10T05:12:19.133Z,100971.50
2023-05-10T05:14:45.636Z,100978.66
2023-05-10T05:17:12.084Z,100974.91
2023-05-10T05:19:38.542Z,100982.44
2023-05-10T05:22:07.272Z,100985.81
2023-05-10T05:24:39.029Z,100986.50
2023-05-10T05:27:05.750Z,100989.53
2023-05-10T05:29:32.211Z,100997.13
2023-05-10T05:31:58.847Z,100999.34
2023-05-10T05:34:25.400Z,100995.63
2023-05-10T05:36:51.933Z,100999.34
2023-05-10T05:39:18.385Z,101003.16
2023-05-10T05:41:44.949Z,101006.91
2023-05-10T05:44:11.360Z,101004.25
2023-05-10T05:46:37.864Z,101009.13
2023-05-10T05:49:04.289Z,101004.09
2023-05-10T05:51:30.720Z,101004.59
2023-05-10T05:53:57.130Z,101009.13
2023-05-10T05:56:26.556Z,101014.06
2023-05-10T05:58:53.074Z,101010.69
2023-05-10T06:01:19.642Z,101018.91
2023-05-10T06:03:46.292Z,101015.16
2023-05-10T06:06:13.493Z,101020.16
2023-05-10T06:08:39.956Z,101019.03
2023-05-10T06:11:06.380Z,101023.13
2023-05-10T06:13:34.294Z,101022.00
2023-05-10T06:16:01.373Z,101031.81
2023-05-10T06:18:27.851Z,101031.47
2023-05-10T06:20:54.319Z,101037.09
2023-05-10T06:23:20.788Z,101043.94
2023-05-10T06:25:47.660Z,101038.28
2023-05-10T06:28:14.159Z,101037.16
2023-05-10T06:30:40.656Z,101039.03
2023-05-10T06:33:07.244Z,101035.66
2023-05-10T06:35:34.515Z,101043.94
2023-05-10T06:38:01.116Z,101039.78
2023-05-10T06:40:27.756Z,101043.19
2023-05-10T06:42:54.172Z,101049.59
2023-05-10T06:45:20.958Z,101045.06
2023-05-10T06:47:47.937Z,101053.75
2023-05-10T06:50:14.506Z,101056.00
2023-05-10T06:52:41.062Z,101060.91
2023-05-10T06:55:08.019Z,101063.56
2023-05-10T06:57:34.454Z,101065.06
2023-05-10T07:00:01.056Z,101064.31
2023-05-10T07:02:27.734Z,101059.78
2023-05-10T07:04:54.429Z,101063.94
2023-05-10T07:07:20.947Z,101061.69
2023-05-10T07:09:53.574Z,101067.34
2023-05-10T07:12:20.150Z,101070.00
2023-05-10T07:14:46.825Z,101064.69
2023-05-10T07:17:13.476Z,101073.38
2023-05-10T07:19:39.994Z,101075.28
2023-05-10T07:22:06.502Z,101079.41
2023-05-10T07:24:33.363Z,101088.47
2023-05-10T07:26:59.833Z,101085.84
2023-05-10T07:29:26.864Z,101092.63
2023-05-10T07:31:55.290Z,101099.78
2023-05-10T07:34:23.025Z,101098.28
2023-05-10T07:36:49.552Z,101101.28
2023-05-10T07:39:24.424Z,101109.22
2023-05-10T07:41:53.392Z,101109.59
2023-05-10T07:44:23.798Z,101098.28
2023-05-10T07:46:50.326Z,101108.06
2023-05-10T07:49:17.008Z,101106.22
2023-05-10T07:51:43.730Z,101111.13
2023-05-10T07:54:10.264Z,101108.13
2023-05-10T07:56:37.144Z,101117.94
2023-05-10T07:59:09.296Z,101113.41
2023-05-10T08:01:36.820Z,101110.75
2023-05-10T08:04:03.523Z,101110.75
2023-05-10T08:06:31.024Z,101117.94
2023-05-10T08:08:57.820Z,101125.47
2023-05-10T08:11:24.652Z,101126.97
2023-05-10T08:13:51.709Z,101120.94
2023-05-10T08:16:18.468Z,101129.25
2023-05-10T08:18:46.648Z,101132.66
2023-05-10T08:21:14.671Z,101137.94
2023-05-10T08:23:41.645Z,101134.97
2023-05-10T08:26:08.101Z,101143.22
2023-05-10T08:28:35.699Z,101141.72
2023-05-10T08:31:02.173Z,101142.13
2023-05-10T08:33:28.654Z,101145.16
2023-05-10T08:35:55.147Z,101146.97
2023-05-10T08:38:21.677Z,101151.13
2023-05-10T08:40:50.376Z,101157.47
2023-05-10T08:43:16.983Z,101158.94
2023-05-10T08:45:48.776Z,101157.00
2023-05-10T08:48:16.583Z,101163.00
2023-05-10T08:50:44.017Z,101161.44
2023-05-10T08:53:12.334Z,101163.28
2023-05-10T08:55:39.762Z,101169.28
2023-05-10T08:58:07.126Z,101170.75
2023-05-10T09:00:34.184Z,101172.94
2023-05-10T09:03:01.622Z,101172.88
2023-05-10T09:05:28.453Z,101176.19
2023-05-10T09:07:54.940Z,101168.56
2023-05-10T09:10:22.597Z,101175.28
2023-05-10T09:12:49.553Z,101173.28
2023-05-10T09:15:20.294Z,101179.63
2023-05-10T09:17:48.192Z,101170.88
2023-05-10T09:20:14.818Z,101180.69
2023-05-10T09:22:41.900Z,101182.50
2023-05-10T09:25:10.067Z,101185.84
2023-05-10T09:27:37.244Z,101187.75
2023-05-10T09:30:06.143Z,101194.16
2023-05-10T09:32:46.808Z,101186.16
2023-05-10T09:35:19.179Z,101184.28
2023-05-10T09:37:48.900Z,101186.13
2023-05-10T09:40:20.327Z,101191.75
2023-05-10T09:42:54.327Z,101202.69
2023-05-10T09:45:21.059Z,101198.66
2023-05-10T09:47:50.911Z,101203.28
2023-05-10T09:50:18.003Z,101208.78
2023-05-10T09:52:52.426Z,101206.78
2023-05-10T09:55:21.191Z,101207.16
2023-05-10T09:57:49.317Z,101204.00
2023-05-10T10:00:21.655Z,101215.25
2023-05-10T10:03:01.128Z,101222.03
2023-05-10T10:05:34.849Z,101208.00
2023-05-10T10:08:03.242Z,101219.47
2023-05-10T10:10:30.105Z,101217.94
2023-05-10T10:12:56.672Z,101216.75
2023-05-10T10:15:23.987Z,101216.00
2023-05-10T10:17:51.824Z,101218.66
2023-05-10T10:20:20.627Z,101220.47
2023-05-10T10:22:48.312Z,101218.91
2023-05-10T10:25:17.127Z,101219.75
2023-05-10T10:27:56.260Z,101228.81
2023-05-10T10:30:31.745Z,101228.69
2023-05-10T10:33:13.273Z,101236.84
2023-05-10T10:35:47.793Z,101227.50
2023-05-10T10:38:14.794Z,101236.56
2023-05-10T10:40:41.382Z,101232.78
2023-05-10T10:43:27.797Z,101233.47
2023-05-10T10:46:18.038Z,101233.72
2023-05-10T10:49:09.359Z,101234.19
2023-05-10T10:51:39.701Z,101233.84
2023-05-10T10:54:12.570Z,101230.75
2023-05-10T10:56:39.196Z,101233.84
2023-05-10T10:59:05.678Z,101227.50
2023-05-10T11:01:36.417Z,101227.28
2023-05-10T11:04:05.962Z,101225.44
2023-05-10T11:06:37.138Z,101231.94
2023-05-10T11:09:10.197Z,101231.31
2023-05-10T11:11:37.561Z,101232.91
2023-05-10T11:14:08.076Z,101227.63
2023-05-10T11:16:45.166Z,101233.47
2023-05-10T11:19:13.635Z,101231.25
2023-05-10T11:22:14.013Z,101235.47
2023-05-10T11:24:40.477Z,101231.84
2023-05-10T11:27:07.070Z,101223.91
2023-05-10T11:29:33.499Z,101231.56
2023-05-10T11:32:00.700Z,101235.72
2023-05-10T11:34:34.285Z,101242.19
2023-05-10T11:37:01.288Z,101240.28
2023-05-10T11:39:29.675Z,101237.66
2023-05-10T11:41:56.409Z,101246.72
2023-05-10T11:44:23.492Z,101241.44
2023-05-10T11:46:50.317Z,101241.03
2023-05-10T11:49:16.873Z,101238.06
2023-05-10T11:51:44.599Z,101230.13
2023-05-10T11:54:12.334Z,101238.44
2023-05-10T11:56:40.832Z,101242.66
2023-05-10T11:59:08.914Z,101232.03
2023-05-10T12:01:36.142Z,101234.25
2023-05-10T12:04:03.000Z,101241.03
2023-05-10T12:06:32.831Z,101242.19
2023-05-10T12:09:00.230Z,101240.72
2023-05-10T12:11:28.670Z,101235.81
2023-05-10T12:13:56.442Z,101239.19
2023-05-10T12:16:29.129Z,101246.06
2023-05-10T12:18:59.044Z,101241.84
2023-05-10T12:21:26.218Z,101255.06
2023-05-10T12:24:00.519Z,101244.13
2023-05-10T12:26:30.147Z,101245.28
2023-05-10T12:29:13.155Z,101245.72
2023-05-10T12:31:52.703Z,101248.78
2023-05-10T12:34:26.715Z,101251.47
2023-05-10T12:36:56.591Z,101250.34
2023-05-10T12:39:23.311Z,101251.84
2023-05-10T12:41:49.762Z,101252.25
2023-05-10T12:44:18.736Z,101261.72
2023-05-10T12:46:45.102Z,101267.00
2023-05-10T12:49:11.540Z,101273.03
2023-05-10T12:51:37.947Z,101280.59
2023-05-10T12:54:04.628Z,101277.56
2023-05-10T12:56:31.080Z,101277.22
2023-05-10T12:58:57.452Z,101277.56
2023-05-10T13:01:23.950Z,101279.88
2023-05-10T13:03:50.600Z,101283.66
2023-05-10T13:06:16.996Z,101281.41
2023-05-10T13:08:43.393Z,101290.50
2023-05-10T13:11:09.796Z,101290.84
2023-05-10T13:13:36.191Z,101298.78
2023-05-10T13:16:02.622Z,101297.28
2023-05-10T13:18:29.143Z,101299.59
2023-05-10T13:20:56.696Z,101307.53
2023-05-10T13:23:23.495Z,101306.03
2023-05-10T13:25:49.901Z,101308.28
2023-05-10T13:28:18.405Z,101308.28
2023-05-10T13:30:44.875Z,101308.28
2023-05-10T13:33:11.340Z,101312.44
2023-05-10T13:35:37.776Z,101324.50
2023-05-10T13:38:04.275Z,101317.66
2023-05-10T13:40:30.655Z,101314.28
2023-05-10T13:42:57.134Z,101324.50
2023-05-10T13:45:23.655Z,101329.03
2023-05-10T13:47:50.425Z,101335.06
2023-05-10T13:50:20.279Z,101327.94
2023-05-10T13:52:46.739Z,101333.59
2023-05-10T13:55:14.175Z,101329.84
2023-05-10T13:57:40.603Z,101330.59
2023-05-10T14:00:07.678Z,101330.97
2023-05-10T14:02:34.096Z,101330.22
2023-05-10T14:05:01.157Z,101326.03
2023-05-10T14:07:27.543Z,101329.81
2023-05-10T14:09:53.923Z,101329.09
2023-05-10T14:12:20.318Z,101328.31
2023-05-10T14:14:46.772Z,101324.53
2023-05-10T14:17:13.189Z,101326.78
2023-05-10T14:19:39.774Z,101325.31
2023-05-10T14:22:06.529Z,101318.88
2023-05-10T14:24:33.362Z,101326.03
2023-05-10T14:26:59.737Z,101317.00
2023-05-10T14:29:26.153Z,101322.31
2023-05-10T14:31:52.691Z,101322.31
2023-05-10T14:34:19.177Z,101323.06
2023-05-10T14:36:45.555Z,101326.47
2023-05-10T14:39:13.720Z,101326.06
2023-05-10T14:41:42.474Z,101334.38
2023-05-10T14:44:08.852Z,101325.69
2023-05-10T14:46:35.567Z,101327.19
2023-05-10T14:49:02.069Z,101324.09
2023-05-10T14:51:28.614Z,101315.03
2023-05-10T14:53:55.228Z,101321.44
2023-05-10T14:56:22.523Z,101314.56
2023-05-10T14:58:50.648Z,101311.59
2023-05-10T15:01:17.288Z,101305.47
2023-05-10T15:03:44.019Z,101306.19
2023-05-10T15:06:11.604Z,101308.78
2023-05-10T15:08:37.989Z,101310.94
2023-05-10T15:11:04.442Z,101305.25
2023-05-10T15:13:30.828Z,101309.75
2023-05-10T15:15:57.320Z,101306.22
2023-05-10T15:18:26.889Z,101313.31
2023-05-10T15:20:53.317Z,101307.28
2023-05-10T15:23:19.720Z,101310.56
2023-05-10T15:25:47.280Z,101315.00
2023-05-10T15:28:13.713Z,101313.13
2023-05-10T15:30:40.122Z,101318.78
2023-05-10T15:33:06.613Z,101322.19
2023-05-10T15:35:33.290Z,101327.16
2023-05-10T15:37:59.700Z,101326.47
2023-05-10T15:40:26.120Z,101322.69
2023-05-10T15:42:52.674Z,101332.88
2023-05-10T15:45:19.225Z,101332.59
2023-05-10T15:47:46.524Z,101342.47
2023-05-10T15:50:13.008Z,101340.97
2023-05-10T15:52:39.523Z,101342.94
2023-05-10T15:55:12.682Z,101342.94
2023-05-10T15:57:40.826Z,101341.81
2023-05-10T16:00:09.144Z,101348.25
2023-05-10T16:02:36.067Z,101350.50
2023-05-10T16:05:02.570Z,101353.16
2023-05-10T16:07:29.156Z,101356.66
2023-05-10T16:09:55.792Z,101361.19
2023-05-10T16:12:22.451Z,101358.94
2023-05-10T16:14:49.027Z,101351.34
2023-05-10T16:17:15.725Z,101355.56
2023-05-10T16:19:42.340Z,101359.75
2023-05-10T16:22:08.835Z,101355.59
2023-05-10T16:24:35.290Z,101364.28
2023-05-10T16:27:01.714Z,101356.75
2023-05-10T16:29:28.131Z,101355.97
2023-05-10T16:31:54.891Z,101370.34
2023-05-10T16:34:24.296Z,101370.34
2023-05-10T16:36:51.467Z,101367.34
2023-05-10T16:39:17.944Z,101368.84
2023-05-10T16:41:44.675Z,101373.38
2023-05-10T16:44:11.154Z,101365.13
2023-05-10T16:46:37.800Z,101365.06
2023-05-10T16:49:04.503Z,101367.34
2023-05-10T16:51:31.460Z,101373.75
2023-05-10T16:53:57.876Z,101373.69
2023-05-10T16:56:24.595Z,101364.25
2023-05-10T16:58:51.377Z,101365.34
2023-05-10T17:01:18.349Z,101367.97
2023-05-10T17:03:45.021Z,101360.38
2023-05-10T17:06:12.016Z,101367.13
2023-05-10T17:08:38.512Z,101366.38
2023-05-10T17:11:05.016Z,101365.56
2023-05-10T17:13:31.962Z,101361.78
2023-05-10T17:15:58.558Z,101365.50
2023-05-10T17:18:26.659Z,101368.91
2023-05-10T17:20:53.233Z,101372.72
2023-05-10T17:23:19.724Z,101382.88
2023-05-10T17:25:46.239Z,101390.50
2023-05-10T17:28:12.782Z,101384.78
2023-05-10T17:30:39.219Z,101388.97
2023-05-10T17:33:05.831Z,101387.91
2023-05-10T17:35:32.345Z,101388.22
2023-05-10T17:37:58.828Z,101386.69
2023-05-10T17:40:25.519Z,101396.16
2023-05-10T17:42:52.157Z,101398.75
2023-05-10T17:45:19.028Z,101401.41
2023-05-10T17:47:45.887Z,101398.75
2023-05-10T17:50:12.396Z,101404.84
2023-05-10T17:52:38.875Z,101406.00
2023-05-10T17:55:05.794Z,101407.13
2023-05-10T17:57:32.259Z,101408.63
2023-05-10T17:59:58.700Z,101418.47
2023-05-10T18:02:25.121Z,101409.78
2023-05-10T18:04:51.702Z,101412.84
2023-05-10T18:07:18.227Z,101416.63
2023-05-10T18:09:44.643Z,101412.44
2023-05-10T18:12:11.104Z,101412.84
2023-05-10T18:14:41.193Z,101412.09
2023-05-10T18:17:09.404Z,101418.19
2023-05-10T18:19:35.986Z,101419.31
2023-05-10T18:22:02.762Z,101420.13
2023-05-10T18:24:38.213Z,101415.97
2023-05-10T18:27:06.696Z,101418.63
2023-05-10T18:29:33.240Z,101407.66
2023-05-10T18:31:59.697Z,101420.47
2023-05-10T18:34:26.155Z,101414.81
2023-05-10T18:36:52.984Z,101413.34
2023-05-10T18:39:19.556Z,101414.53
2023-05-10T18:41:46.239Z,101416.78
2023-05-10T18:44:12.733Z,101415.28
2023-05-10T18:46:39.508Z,101416.44
2023-05-10T18:49:08.320Z,101419.78
2023-05-10T18:51:34.804Z,101425.50
2023-05-10T18:54:01.396Z,101424.03
2023-05-10T18:56:27.929Z,101425.56
2023-05-10T18:58:54.424Z,101425.56
2023-05-10T19:01:21.321Z,101432.34
2023-05-10T19:03:47.887Z,101435.78
2023-05-10T19:06:14.361Z,101432.03
2023-05-10T19:08:40.947Z,101434.31
2023-05-10T19:11:07.448Z,101436.22
2023-05-10T19:13:34.285Z,101437.34
2023-05-10T19:16:15.975Z,101441.50
2023-05-10T19:18:44.057Z,101445.66
2023-05-10T19:21:11.434Z,101448.31
2023-05-10T19:23:40.340Z,101447.22
2023-05-10T19:26:07.294Z,101453.28
2023-05-10T19:28:34.251Z,101451.03
2023-05-10T19:31:02.154Z,101450.25
2023-05-10T19:33:29.143Z,101455.19
2023-05-10T19:35:55.819Z,101450.66
2023-05-10T19:38:23.567Z,101454.44
2023-05-10T19:40:51.053Z,101461.59
2023-05-10T19:43:17.777Z,101462.38
2023-05-10T19:45:44.382Z,101463.53
2023-05-10T19:48:12.457Z,101470.69
2023-05-10T19:50:38.951Z,101468.44
2023-05-10T19:53:05.353Z,101473.72
2023-05-10T19:55:32.532Z,101475.97
2023-05-10T19:58:02.495Z,101471.84
2023-05-10T20:00:29.282Z,101478.25
2023-05-10T20:02:55.998Z,101480.56
2023-05-10T20:05:22.784Z,101474.13
2023-05-10T20:07:49.366Z,101481.69
2023-05-10T20:10:17.115Z,101481.34
2023-05-10T20:12:52.485Z,101476.06
2023-05-10T20:15:21.492Z,101481.72
2023-05-10T20:17:48.542Z,101484.34
2023-05-10T20:20:18.521Z,101480.19
2023-05-10T20:22:45.630Z,101486.25
2023-05-10T20:25:13.082Z,101483.59
2023-05-10T20:27:39.555Z,101485.88
2023-05-10T20:30:07.055Z,101485.50
2023-05-10T20:32:34.632Z,101484.69
2023-05-10T20:35:01.478Z,101483.53
2023-05-10T20:37:28.280Z,101481.34
2023-05-10T20:39:55.250Z,101482.47
2023-05-10T20:42:21.962Z,101485.50
2023-05-10T20:44:48.565Z,101491.91
2023-05-10T20:47:15.938Z,101494.94
2023-05-10T20:49:42.717Z,101486.63
2023-05-10T20:52:09.533Z,101487.75
2023-05-10T20:54:35.931Z,101487.00
2023-05-10T20:57:02.395Z,101485.09
2023-05-10T20:59:29.355Z,101486.25
2023-05-10T21:01:56.962Z,101490.75
2023-05-10T21:04:24.574Z,101487.34
2023-05-10T21:06:51.287Z,101490.00
2023-05-10T21:09:17.889Z,101487.00
2023-05-10T21:11:44.493Z,101494.94
2023-05-10T21:14:11.001Z,101494.16
2023-05-10T21:16:37.457Z,101499.44
2023-05-10T21:19:04.047Z,101491.53
2023-05-10T21:21:31.079Z,101497.19
2023-05-10T21:23:57.605Z,101491.91
2023-05-10T21:26:24.074Z,101487.34
2023-05-10T21:28:50.601Z,101484.34
2023-05-10T21:31:17.124Z,101481.34
2023-05-10T21:33:43.653Z,101482.06
2023-05-10T21:36:10.177Z,101478.69
2023-05-10T21:38:36.695Z,101482.06
2023-05-10T21:41:07.065Z,101483.97
2023-05-10T21:43:33.782Z,101476.78
2023-05-10T21:46:00.260Z,101484.31
2023-05-10T21:48:26.732Z,101485.47
2023-05-10T21:50:53.171Z,101490.75
2023-05-10T21:53:19.673Z,101486.22
2023-05-10T21:55:47.320Z,101488.09
2023-05-10T21:58:13.715Z,101490.75
2023-05-10T22:00:40.183Z,101489.25
2023-05-10T22:03:06.727Z,101490.03
2023-05-10T22:05:33.363Z,101488.47
2023-05-10T22:07:59.835Z,101493.41
2023-05-10T22:10:26.270Z,101490.78
2023-05-10T22:12:52.813Z,101499.84
2023-05-10T22:15:19.292Z,101493.41
2023-05-10T22:17:45.758Z,101490.78
2023-05-10T22:20:12.548Z,101496.41
2023-05-10T22:22:39.068Z,101491.91
2023-05-10T22:25:07.404Z,101488.47
2023-05-10T22:27:33.995Z,101488.47
2023-05-10T22:30:00.492Z,101491.53
2023-05-10T22:32:27.180Z,101490.03
2023-05-10T22:34:53.699Z,101494.16
2023-05-10T22:37:20.196Z,101492.28
2023-05-10T22:39:46.888Z,101495.69
2023-05-10T22:42:13.386Z,101491.56
2023-05-10T22:44:39.800Z,101495.72
2023-05-10T22:47:09.107Z,101490.44
2023-05-10T22:49:35.648Z,101494.56
2023-05-10T22:52:02.365Z,101493.81
2023-05-10T22:54:28.850Z,101495.72
2023-05-10T22:56:56.482Z,101491.56
2023-05-10T22:59:23.112Z,101492.28
2023-05-10T23:01:49.628Z,101491.16
2023-05-10T23:04:16.212Z,101502.84
2023-05-10T23:06:42.644Z,101497.97
2023-05-10T23:09:09.823Z,101509.31
2023-05-10T23:11:36.493Z,101505.94
2023-05-10T23:14:03.147Z,101510.03
2023-05-10T23:16:30.585Z,101516.47
2023-05-10T23:18:57.373Z,101519.09
2023-05-10T23:21:25.253Z,101511.56
2023-05-10T23:23:52.453Z,101520.25
2023-05-10T23:26:18.971Z,101514.94
2023-05-10T23:28:45.396Z,101512.69
2023-05-10T23:31:11.811Z,101518.72
2023-05-10T23:33:38.314Z,101514.59
2023-05-10T23:36:05.114Z,101509.31
2023-05-10T23:38:31.551Z,101510.81
2023-05-10T23:40:58.009Z,101515.34
2023-05-10T23:43:25.405Z,101519.88
2023-05-10T23:45:58.585Z,101517.97
2023-05-10T23:48:25.272Z,101513.44
2023-05-10T23:50:51.783Z,101513.44
2023-05-10T23:53:18.379Z,101511.97
2023-05-10T23:55:45.442Z,101516.09
2023-05-10T23:58:12.544Z,101512.69
